Time;durP1;ratioP1;P1;durP2;ratioP2;P2;SDS_P1;SDS_P2;PMS_P1;PMS_P2;Temp;Humidity;BMP_temperature;BMP_pressure;BME280_temperature;BME280_humidity;BME280_pressure;Samples;Min_cycle;Max_cycle;Signal;HPM_P1;HPM_P2
2023/09/18 00:00:59;;;;;;;8.53;5.13;;;;;;;20.22;100.00;101983.78;2079815;28;20188;-65
2023/09/18 00:02:00;;;;;;;7.03;4.90;;;;;;;20.16;100.00;101974.38;2080493;28;20189;-65
2023/09/18 00:03:02;;;;;;;7.93;5.50;;;;;;;20.23;100.00;101986.13;2080495;28;20196;-65
2023/09/18 00:04:03;;;;;;;6.93;5.07;;;;;;;20.22;100.00;101981.72;2080509;28;20189;-65
2023/09/18 00:05:04;;;;;;;6.73;4.53;;;;;;;20.20;100.00;101989.88;2080452;28;20455;-65
2023/09/18 00:06:04;;;;;;;12.60;5.27;;;;;;;20.19;100.00;101981.88;2080483;28;20212;-65
2023/09/18 00:07:05;;;;;;;6.03;4.53;;;;;;;20.13;100.00;101975.31;2080035;28;20221;-65
2023/09/18 00:08:05;;;;;;;7.20;4.37;;;;;;;20.02;100.00;101967.28;2080514;28;20181;-65
2023/09/18 00:09:11;;;;;;;6.80;4.43;;;;;;;20.14;100.00;101985.31;2080376;28;20196;-65
2023/09/18 00:10:11;;;;;;;6.00;4.40;;;;;;;20.08;100.00;101979.53;2079826;28;20263;-65
2023/09/18 00:11:12;;;;;;;6.50;4.77;;;;;;;20.12;100.00;101988.59;2080895;28;20412;-65
2023/09/18 00:12:12;;;;;;;9.57;4.70;;;;;;;20.08;100.00;101987.97;2080061;28;20193;-65
2023/09/18 00:13:12;;;;;;;7.17;4.83;;;;;;;20.10;100.00;101993.09;2080367;28;20203;-65
2023/09/18 00:14:13;;;;;;;9.00;4.87;;;;;;;20.08;100.00;101984.34;2080196;28;20184;-65
2023/09/18 00:15:13;;;;;;;6.77;4.77;;;;;;;20.09;100.00;101991.56;2080266;28;20201;-65
2023/09/18 00:16:14;;;;;;;6.60;4.47;;;;;;;20.09;100.00;101988.72;2080277;28;20609;-65
2023/09/18 00:17:14;;;;;;;7.67;4.80;;;;;;;20.08;100.00;101984.34;2080190;28;20185;-65
2023/09/18 00:18:15;;;;;;;9.33;4.97;;;;;;;20.07;100.00;101985.59;2079941;28;20216;-65
2023/09/18 00:19:16;;;;;;;6.77;5.10;;;;;;;20.06;100.00;101984.78;2080504;28;20225;-65
2023/09/18 00:20:17;;;;;;;6.93;4.60;;;;;;;20.05;100.00;101988.84;2079594;28;20447;-65
2023/09/18 00:21:17;;;;;;;8.10;4.60;;;;;;;20.00;100.00;101986.66;2080249;28;20731;-65
2023/09/18 00:22:18;;;;;;;6.27;4.50;;;;;;;19.98;100.00;101982.75;2080367;28;20451;-65
2023/09/18 00:23:18;;;;;;;6.50;4.90;;;;;;;20.01;100.00;101973.38;2080302;28;20197;-65
2023/09/18 00:24:19;;;;;;;6.70;5.13;;;;;;;20.00;100.00;101978.22;2080528;28;20201;-65
2023/09/18 00:25:19;;;;;;;7.00;4.20;;;;;;;20.03;100.00;101979.31;2080230;28;20256;-65
2023/09/18 00:26:19;;;;;;;6.17;4.50;;;;;;;20.01;100.00;101979.78;2080446;28;20216;-65
2023/09/18 00:27:20;;;;;;;5.33;4.17;;;;;;;20.00;100.00;101978.22;2080430;28;20235;-65
2023/09/18 00:28:20;;;;;;;8.83;4.13;;;;;;;19.98;100.00;101980.72;2079627;28;20216;-65
2023/09/18 00:29:21;;;;;;;4.83;4.00;;;;;;;19.49;100.00;101903.22;2079292;28;20207;-65
2023/09/18 00:30:21;;;;;;;6.20;4.40;;;;;;;19.94;100.00;101974.44;2079529;28;20203;-65
2023/09/18 00:31:21;;;;;;;6.17;3.73;;;;;;;19.83;100.00;101964.88;2080338;28;20236;-65
2023/09/18 00:32:22;;;;;;;6.63;4.30;;;;;;;19.94;100.00;101982.09;2081809;28;20193;-65
2023/09/18 00:33:22;;;;;;;9.23;4.87;;;;;;;19.93;100.00;101984.16;2081916;28;20185;-65
2023/09/18 00:34:23;;;;;;;8.47;4.57;;;;;;;19.92;100.00;101982.59;2082079;28;20180;-65
2023/09/18 00:35:23;;;;;;;6.53;4.67;;;;;;;19.92;100.00;101982.59;2082717;28;20177;-65
2023/09/18 00:36:24;;;;;;;6.80;4.60;;;;;;;19.54;100.00;101920.25;2081918;28;20283;-65
2023/09/18 00:37:24;;;;;;;5.93;4.63;;;;;;;19.68;100.00;101942.16;2081859;28;20272;-65
2023/09/18 00:38:25;;;;;;;7.10;4.80;;;;;;;19.90;100.00;101979.44;2082009;28;20196;-65
2023/09/18 00:39:28;;;;;;;10.93;5.03;;;;;;;19.90;100.00;101976.63;2081227;28;20274;-65
2023/09/18 00:40:29;;;;;;;6.07;4.73;;;;;;;19.89;100.00;101985.53;2082018;28;20192;-65
2023/09/18 00:41:30;;;;;;;8.50;4.87;;;;;;;19.87;100.00;101982.41;2081974;28;20412;-65
2023/09/18 00:42:30;;;;;;;9.70;5.13;;;;;;;19.36;100.00;101902.53;2081725;28;20172;-65
2023/09/18 00:43:31;;;;;;;6.07;4.33;;;;;;;19.79;100.00;101993.16;2081787;28;20184;-65
2023/09/18 00:44:31;;;;;;;7.57;4.37;;;;;;;19.84;100.00;101981.28;2082271;28;20173;-65
2023/09/18 00:45:32;;;;;;;6.67;4.30;;;;;;;19.83;100.00;101990.97;2081799;28;20196;-65
2023/09/18 00:46:33;;;;;;;6.50;4.13;;;;;;;19.81;100.00;101984.25;2081861;28;20198;-65
2023/09/18 00:47:36;;;;;;;7.23;4.80;;;;;;;19.80;100.00;101985.50;2084696;28;20193;-65
2023/09/18 00:48:36;;;;;;;6.10;4.63;;;;;;;19.79;100.00;101989.53;2081221;28;20250;-65
2023/09/18 00:49:39;;;;;;;9.00;4.40;;;;;;;19.78;100.00;101987.97;2081550;28;20443;-65
2023/09/18 00:50:41;;;;;;;8.57;5.43;;;;;;;19.75;100.00;101995.31;2081788;28;20551;-65
2023/09/18 00:51:41;;;;;;;9.57;5.13;;;;;;;19.73;100.00;101985.78;2081205;28;20490;-65
2023/09/18 00:52:43;;;;;;;5.97;4.73;;;;;;;19.67;100.00;101980.00;2081650;28;20415;-65
2023/09/18 00:53:48;;;;;;;7.73;4.23;;;;;;;19.17;100.00;101903.63;2082410;28;20278;-65
2023/09/18 00:54:49;;;;;;;7.30;4.60;;;;;;;19.54;100.00;101982.09;2081857;28;20941;-65
2023/09/18 00:55:56;;;;;;;7.77;4.53;;;;;;;19.28;100.00;101923.72;2081804;28;20447;-65
2023/09/18 00:56:57;;;;;;;8.23;4.30;;;;;;;19.68;100.00;101992.00;2081736;28;20466;-65
2023/09/18 00:57:58;;;;;;;6.43;4.10;;;;;;;19.67;100.00;101982.00;2081681;28;21006;-65
2023/09/18 00:59:00;;;;;;;6.83;4.63;;;;;;;19.66;100.00;101988.88;2080933;28;20451;-66
2023/09/18 01:00:04;;;;;;;7.23;4.27;;;;;;;19.64;100.00;101978.09;2080448;28;20936;-65
2023/09/18 01:01:04;;;;;;;5.40;4.43;;;;;;;19.66;100.00;101984.03;2081288;28;21191;-65
2023/09/18 01:02:05;;;;;;;5.23;3.77;;;;;;;19.23;100.00;101915.88;2081463;28;20820;-65
2023/09/18 01:03:05;;;;;;;5.50;3.90;;;;;;;19.66;100.00;101974.81;2081484;28;20189;-65
2023/09/18 01:04:07;;;;;;;10.33;4.10;;;;;;;19.63;100.00;101979.34;2082200;28;20670;-65
2023/09/18 01:05:08;;;;;;;5.90;4.20;;;;;;;19.58;100.00;101973.53;2081977;28;20197;-65
2023/09/18 01:06:08;;;;;;;6.90;4.57;;;;;;;19.59;100.00;101984.31;2081046;28;20577;-65
2023/09/18 01:07:08;;;;;;;7.77;4.60;;;;;;;19.58;100.00;101982.75;2080637;28;20805;-65
2023/09/18 01:08:09;;;;;;;6.27;4.13;;;;;;;19.55;100.00;101980.84;2081544;28;20672;-65
2023/09/18 01:09:12;;;;;;;9.23;4.47;;;;;;;19.52;100.00;101984.59;2081219;28;20220;-65
2023/09/18 01:10:16;;;;;;;6.73;4.43;;;;;;;19.50;100.00;101977.88;2081497;28;20184;-65
2023/09/18 01:11:31;;;;;;;8.80;5.07;;;;;;;19.54;100.00;101984.16;2081188;28;20928;-65
2023/09/18 01:13:01;;;;;;;5.50;4.50;;;;;;;19.55;100.00;101983.66;2081338;28;20796;-65
2023/09/18 01:14:24;;;;;;;5.90;4.23;;;;;;;19.53;100.00;101985.38;2077243;28;20884;-65
2023/09/18 01:15:30;;;;;;;7.10;4.73;;;;;;;19.49;100.00;101979.13;2078083;28;20998;-65
2023/09/18 01:16:38;;;;;;;6.43;4.80;;;;;;;19.44;100.00;101982.53;2081655;28;20438;-65
2023/09/18 01:17:40;;;;;;;6.33;4.90;;;;;;;19.43;100.00;101984.56;2080825;28;20443;-65
2023/09/18 01:18:51;;;;;;;6.63;5.00;;;;;;;19.36;100.00;101979.22;2081144;28;20458;-65
2023/09/18 01:19:51;;;;;;;11.10;5.03;;;;;;;19.19;100.00;101946.13;2081068;28;20885;-65
2023/09/18 01:20:52;;;;;;;8.83;4.90;;;;;;;19.43;100.00;101978.13;2080830;28;20482;-65
2023/09/18 01:21:52;;;;;;;7.40;5.10;;;;;;;19.38;100.00;101981.53;2080805;28;20594;-65
2023/09/18 01:22:53;;;;;;;6.50;4.83;;;;;;;18.91;100.00;101911.47;2081684;28;20619;-65
2023/09/18 01:23:53;;;;;;;7.00;4.50;;;;;;;19.42;100.00;101980.19;2081267;28;20189;-65
2023/09/18 01:24:53;;;;;;;5.13;4.30;;;;;;;19.44;100.00;101986.09;2081663;28;20209;-66
2023/09/18 01:25:54;;;;;;;5.53;4.20;;;;;;;19.44;100.00;101979.72;2082132;28;20188;-66
2023/09/18 01:26:54;;;;;;;7.10;4.57;;;;;;;19.45;100.00;101984.84;2081259;28;20203;-65
2023/09/18 01:27:55;;;;;;;10.90;4.53;;;;;;;19.44;100.00;101988.16;2081731;28;20235;-65
2023/09/18 01:28:55;;;;;;;5.83;4.20;;;;;;;19.43;100.00;101987.34;2081557;28;20257;-65
2023/09/18 01:29:55;;;;;;;8.67;4.53;;;;;;;19.43;100.00;101984.56;2081315;28;20254;-65
2023/09/18 01:30:56;;;;;;;6.77;4.50;;;;;;;19.43;100.00;101983.75;2081602;28;20191;-65
2023/09/18 01:31:57;;;;;;;6.70;4.33;;;;;;;19.42;100.00;101983.00;2081478;28;20181;-65
2023/09/18 01:32:59;;;;;;;6.87;4.77;;;;;;;19.42;100.00;101988.59;2081398;28;20263;-65
2023/09/18 01:34:00;;;;;;;8.53;4.97;;;;;;;19.42;100.00;101988.59;2081947;28;20936;-65
2023/09/18 01:35:03;;;;;;;8.20;4.77;;;;;;;19.44;100.00;101988.16;2081770;28;20971;-65
2023/09/18 01:36:07;;;;;;;6.73;4.13;;;;;;;19.44;100.00;101993.78;2081362;28;20447;-65
2023/09/18 01:37:10;;;;;;;6.70;4.67;;;;;;;18.82;100.00;101899.38;2081409;28;20443;-65
2023/09/18 01:38:11;;;;;;;5.97;4.87;;;;;;;19.42;100.00;101996.25;2081487;28;20439;-65
2023/09/18 01:39:12;;;;;;;7.50;4.47;;;;;;;19.42;100.00;101990.63;2081788;28;20458;-65
2023/09/18 01:40:13;;;;;;;8.23;4.80;;;;;;;19.40;100.00;101987.50;2080777;28;20479;-65
2023/09/18 01:41:13;;;;;;;9.67;5.00;;;;;;;19.42;100.00;101985.81;2081476;28;20188;-65
2023/09/18 01:42:14;;;;;;;7.50;4.73;;;;;;;19.42;100.00;101988.59;2081545;28;20179;-65
2023/09/18 01:43:15;;;;;;;7.33;4.33;;;;;;;19.45;100.00;101987.66;2081548;28;20426;-65
2023/09/18 01:44:15;;;;;;;8.60;4.70;;;;;;;19.48;100.00;101991.59;2081431;28;20450;-65
2023/09/18 01:45:16;;;;;;;10.70;4.90;;;;;;;19.46;100.00;101994.09;2081724;28;20202;-65
2023/09/18 01:46:17;;;;;;;6.67;4.73;;;;;;;19.43;100.00;101995.78;2081432;28;20207;-65
2023/09/18 01:47:20;;;;;;;6.03;4.10;;;;;;;18.98;100.00;101928.03;2080985;28;20322;-65
2023/09/18 01:48:21;;;;;;;11.13;4.67;;;;;;;19.45;100.00;101996.09;2081490;28;20482;-65
2023/09/18 01:49:34;;;;;;;5.67;4.40;;;;;;;19.43;100.00;101987.34;2080673;28;24003;-65
2023/09/18 01:50:37;;;;;;;5.03;4.23;;;;;;;19.46;100.00;101988.47;2081522;28;20318;-65
2023/09/18 01:51:37;;;;;;;5.73;4.03;;;;;;;19.46;100.00;101982.84;2080990;28;20538;-65
2023/09/18 01:52:37;;;;;;;6.37;4.30;;;;;;;19.46;100.00;101986.44;2081102;28;20435;-65
2023/09/18 01:53:38;;;;;;;8.60;4.47;;;;;;;19.41;100.00;101980.63;2081925;28;20181;-65
2023/09/18 01:54:38;;;;;;;5.50;4.10;;;;;;;19.42;100.00;101988.59;2081821;28;20268;-65
2023/09/18 01:55:39;;;;;;;9.03;4.53;;;;;;;19.43;100.00;101987.34;2081215;28;20193;-65
2023/09/18 01:56:39;;;;;;;6.57;4.23;;;;;;;19.43;100.00;101986.56;2081582;28;20554;-65
2023/09/18 01:57:39;;;;;;;7.83;4.37;;;;;;;19.39;100.00;101986.72;2081049;28;20221;-65
2023/09/18 01:58:40;;;;;;;8.53;4.80;;;;;;;19.16;100.00;101941.41;2081291;28;20568;-65
2023/09/18 01:59:41;;;;;;;8.30;4.63;;;;;;;19.42;100.00;101979.38;2080954;28;20274;-65
2023/09/18 02:00:41;;;;;;;7.70;4.33;;;;;;;19.42;100.00;101982.19;2080820;28;20180;-65
2023/09/18 02:01:42;;;;;;;7.70;4.60;;;;;;;19.42;100.00;101976.56;2081321;28;20992;-65
2023/09/18 02:02:42;;;;;;;5.10;4.03;;;;;;;19.37;100.00;101979.97;2081614;28;20188;-65
2023/09/18 02:03:42;;;;;;;7.43;4.97;;;;;;;19.42;100.00;101985.81;2081403;28;20678;-65
2023/09/18 02:04:44;;;;;;;8.40;4.63;;;;;;;19.42;100.00;101985.81;2081499;28;20733;-65
2023/09/18 02:05:45;;;;;;;5.87;4.27;;;;;;;19.39;100.00;101985.94;2081232;28;20201;-65
2023/09/18 02:06:47;;;;;;;6.43;4.70;;;;;;;18.96;100.00;101913.69;2081549;28;20431;-65
2023/09/18 02:07:47;;;;;;;6.77;4.37;;;;;;;19.35;100.00;101991.69;2081164;28;20192;-65
2023/09/18 02:08:48;;;;;;;6.80;4.40;;;;;;;19.35;100.00;101982.47;2081155;28;20428;-65
2023/09/18 02:09:48;;;;;;;5.97;4.37;;;;;;;19.30;100.00;101980.25;2080774;28;20251;-66
2023/09/18 02:10:48;;;;;;;7.17;4.20;;;;;;;19.31;100.00;101991.06;2081789;28;20185;-65
2023/09/18 02:11:49;;;;;;;7.90;4.70;;;;;;;19.32;100.00;101987.00;2081296;28;20720;-65
2023/09/18 02:12:49;;;;;;;10.03;4.77;;;;;;;19.23;100.00;101977.72;2081004;28;20266;-65
2023/09/18 02:13:50;;;;;;;8.13;5.03;;;;;;;19.28;100.00;101977.91;2081285;28;20242;-65
2023/09/18 02:14:50;;;;;;;7.63;4.57;;;;;;;19.28;100.00;101985.53;2081167;28;20206;-65
2023/09/18 02:15:51;;;;;;;8.43;4.40;;;;;;;19.28;100.00;101982.72;2081153;28;20219;-65
2023/09/18 02:16:51;;;;;;;9.40;4.67;;;;;;;19.26;100.00;101982.41;2081140;28;20185;-65
2023/09/18 02:17:52;;;;;;;7.37;3.90;;;;;;;18.71;100.00;101908.22;2080090;28;20663;-65
2023/09/18 02:18:55;;;;;;;7.27;4.43;;;;;;;19.21;100.00;101975.34;2081092;28;20703;-65
2023/09/18 02:19:56;;;;;;;8.60;4.20;;;;;;;18.93;100.00;101939.88;2072846;28;20193;-65
2023/09/18 02:20:57;;;;;;;7.00;4.13;;;;;;;19.19;100.00;101980.63;2079659;28;20494;-65
2023/09/18 02:21:57;;;;;;;6.40;4.20;;;;;;;19.19;100.00;101977.81;2081224;28;20639;-65
2023/09/18 02:22:58;;;;;;;7.87;4.23;;;;;;;19.21;100.00;101982.97;2081246;28;20196;-65
2023/09/18 02:23:58;;;;;;;6.33;4.03;;;;;;;18.85;100.00;101929.38;2081044;28;20204;-65
2023/09/18 02:24:58;;;;;;;6.13;4.27;;;;;;;19.18;100.00;101983.91;2081158;28;20203;-65
2023/09/18 02:25:59;;;;;;;10.27;4.30;;;;;;;19.15;100.00;101982.00;2080656;28;20270;-65
2023/09/18 02:26:59;;;;;;;6.60;4.40;;;;;;;19.06;100.00;101979.94;2080667;28;20208;-65
2023/09/18 02:28:00;;;;;;;8.07;4.20;;;;;;;19.04;100.00;101985.22;2081541;28;20216;-65
2023/09/18 02:29:02;;;;;;;6.60;4.60;;;;;;;19.03;100.00;101980.84;2081349;28;20208;-65
2023/09/18 02:30:03;;;;;;;5.73;4.40;;;;;;;19.03;100.00;101977.25;2080761;28;20655;-65
2023/09/18 02:31:03;;;;;;;6.60;4.50;;;;;;;19.03;100.00;101985.69;2081054;28;20451;-65
2023/09/18 02:32:04;;;;;;;6.13;4.43;;;;;;;19.03;100.00;101986.44;2081052;28;20619;-65
2023/09/18 02:33:04;;;;;;;9.70;4.83;;;;;;;19.01;100.00;101974.91;2081280;28;20475;-65
2023/09/18 02:34:05;;;;;;;11.27;4.83;;;;;;;18.93;100.00;101978.44;2081112;28;20556;-66
2023/09/18 02:35:07;;;;;;;10.13;4.93;;;;;;;19.01;100.00;101994.56;2081029;28;20304;-65
2023/09/18 02:36:07;;;;;;;5.47;4.40;;;;;;;19.01;100.00;101985.34;2081548;28;20952;-65
2023/09/18 02:37:07;;;;;;;8.77;4.40;;;;;;;18.97;100.00;101984.69;2081021;28;20908;-65
2023/09/18 02:38:08;;;;;;;7.30;5.07;;;;;;;18.97;100.00;101993.13;2080766;28;20193;-65
2023/09/18 02:39:08;;;;;;;7.37;4.30;;;;;;;18.96;100.00;101986.72;2080981;28;20192;-65
2023/09/18 02:40:09;;;;;;;6.13;4.63;;;;;;;18.91;100.00;101990.13;2080734;28;20661;-65
2023/09/18 02:41:10;;;;;;;6.53;4.40;;;;;;;18.91;100.00;101984.50;2080866;28;20219;-65
2023/09/18 02:42:10;;;;;;;6.20;4.60;;;;;;;18.91;100.00;101986.53;2080845;28;20189;-65
2023/09/18 02:43:11;;;;;;;6.30;4.47;;;;;;;18.90;100.00;101990.56;2080947;28;20185;-65
2023/09/18 02:44:11;;;;;;;10.20;4.97;;;;;;;18.64;100.00;101950.59;2081463;28;20260;-65
2023/09/18 02:45:12;;;;;;;6.83;5.17;;;;;;;18.79;100.00;101974.09;2073307;28;20194;-65
2023/09/18 02:46:12;;;;;;;7.80;4.50;;;;;;;18.82;100.00;101976.00;2080096;28;20239;-65
2023/09/18 02:47:13;;;;;;;10.43;5.13;;;;;;;18.88;100.00;101991.03;2080725;28;20227;-65
2023/09/18 02:48:13;;;;;;;6.53;4.63;;;;;;;18.86;100.00;101976.66;2081099;28;20745;-65
2023/09/18 02:49:14;;;;;;;6.77;4.90;;;;;;;18.88;100.00;101988.22;2081123;28;20193;-65
2023/09/18 02:50:14;;;;;;;6.53;4.90;;;;;;;18.66;100.00;101950.13;2080650;28;20272;-65
2023/09/18 02:51:14;;;;;;;6.27;4.60;;;;;;;18.75;100.00;101967.84;2080877;28;20235;-65
2023/09/18 02:52:15;;;;;;;7.53;4.43;;;;;;;18.86;100.00;101989.91;2080254;28;20266;-65
2023/09/18 02:53:21;;;;;;;6.53;4.87;;;;;;;18.89;100.00;101986.19;2073300;28;20622;-65
2023/09/18 02:54:21;;;;;;;6.87;4.70;;;;;;;18.87;100.00;101985.84;2080381;28;20189;-65
2023/09/18 02:55:22;;;;;;;7.43;4.50;;;;;;;18.86;100.00;101989.91;2080773;28;20964;-65
2023/09/18 02:56:22;;;;;;;7.67;4.97;;;;;;;18.86;100.00;101990.72;2080362;28;20674;-65
2023/09/18 02:57:22;;;;;;;6.23;4.63;;;;;;;18.85;100.00;101986.34;2079958;28;20753;-65
2023/09/18 02:58:25;;;;;;;6.23;4.03;;;;;;;18.87;100.00;101986.66;2080697;28;20708;-65
2023/09/18 02:59:26;;;;;;;7.37;5.17;;;;;;;18.88;100.00;101985.41;2080021;28;20223;-65
2023/09/18 03:00:26;;;;;;;6.57;4.57;;;;;;;18.87;100.00;101977.44;2081149;28;20514;-65
2023/09/18 03:01:27;;;;;;;9.23;4.83;;;;;;;18.88;100.00;101982.59;2080530;28;20180;-65
2023/09/18 03:02:27;;;;;;;7.63;4.57;;;;;;;18.89;100.00;101977.78;2073103;28;20196;-65
2023/09/18 03:03:27;;;;;;;7.60;4.20;;;;;;;18.89;100.00;101986.19;2079744;28;20191;-65
2023/09/18 03:04:30;;;;;;;5.77;4.47;;;;;;;18.86;100.00;101985.09;2081017;28;20204;-65
2023/09/18 03:05:31;;;;;;;8.63;4.77;;;;;;;18.31;100.00;101896.00;2080824;28;20232;-65
2023/09/18 03:06:32;;;;;;;6.40;4.87;;;;;;;18.87;100.00;101983.84;2082386;28;20446;-65
2023/09/18 03:07:32;;;;;;;9.00;4.77;;;;;;;18.87;100.00;101978.22;2085645;28;20231;-65
2023/09/18 03:08:32;;;;;;;5.93;4.50;;;;;;;18.86;100.00;101985.09;2081016;28;20181;-65
2023/09/18 03:09:33;;;;;;;5.80;4.50;;;;;;;18.21;100.00;101877.53;2080418;28;20555;-65
2023/09/18 03:10:34;;;;;;;8.30;4.93;;;;;;;18.83;100.00;101983.19;2081267;28;20200;-65
2023/09/18 03:11:35;;;;;;;6.00;4.20;;;;;;;18.82;100.00;101984.44;2080997;28;20276;-65
2023/09/18 03:12:35;;;;;;;5.20;4.00;;;;;;;18.81;100.00;101976.44;2080791;28;20511;-65
2023/09/18 03:13:36;;;;;;;8.47;5.07;;;;;;;18.80;100.00;101978.50;2080682;28;20248;-65
2023/09/18 03:14:36;;;;;;;6.57;4.17;;;;;;;18.65;100.00;101962.59;2080970;28;20665;-65
2023/09/18 03:15:37;;;;;;;6.30;4.57;;;;;;;18.79;100.00;101979.72;2080701;28;20684;-65
2023/09/18 03:16:38;;;;;;;6.67;4.63;;;;;;;18.80;100.00;101975.69;2080840;28;20288;-65
2023/09/18 03:17:40;;;;;;;5.77;4.47;;;;;;;18.79;100.00;101973.31;2080165;28;20420;-65
2023/09/18 03:18:41;;;;;;;6.73;4.37;;;;;;;18.80;100.00;101977.69;2081332;28;20215;-65
2023/09/18 03:19:41;;;;;;;6.90;5.13;;;;;;;18.80;100.00;101977.69;2080206;28;20558;-65
2023/09/18 03:20:42;;;;;;;7.60;4.63;;;;;;;18.78;100.00;101983.00;2080780;28;20197;-65
2023/09/18 03:21:42;;;;;;;8.77;4.93;;;;;;;18.79;100.00;101974.09;2080769;28;20188;-65
2023/09/18 03:22:42;;;;;;;9.93;4.80;;;;;;;18.78;100.00;101971.75;2080765;28;20192;-65
2023/09/18 03:23:43;;;;;;;7.17;5.77;;;;;;;18.76;100.00;101968.59;2080505;28;20197;-65
2023/09/18 03:24:43;;;;;;;6.70;4.47;;;;;;;18.67;100.00;101966.53;2080671;28;20634;-65
2023/09/18 03:25:44;;;;;;;6.37;4.53;;;;;;;18.72;100.00;101970.78;2080800;28;20169;-65
2023/09/18 03:26:45;;;;;;;7.87;5.00;;;;;;;18.73;100.00;101975.91;2080818;28;20173;-65
2023/09/18 03:27:45;;;;;;;5.37;4.67;;;;;;;18.71;100.00;101974.81;2072641;28;20213;-65
2023/09/18 03:28:46;;;;;;;6.17;4.23;;;;;;;18.72;100.00;101965.94;2079631;28;20714;-65
2023/09/18 03:29:46;;;;;;;6.17;4.67;;;;;;;18.75;100.00;101970.66;2079798;28;20634;-65
2023/09/18 03:30:47;;;;;;;5.80;4.63;;;;;;;18.76;100.00;101968.59;2080680;28;20192;-65
2023/09/18 03:31:47;;;;;;;7.20;4.80;;;;;;;18.73;100.00;101975.16;2080998;28;20209;-65
2023/09/18 03:32:50;;;;;;;6.63;4.17;;;;;;;18.27;100.00;101905.81;2073073;28;20300;-65
2023/09/18 03:33:51;;;;;;;7.60;4.23;;;;;;;18.67;100.00;101977.00;2078852;28;20203;-65
2023/09/18 03:34:52;;;;;;;7.30;4.20;;;;;;;18.31;100.00;101924.06;2080560;28;20439;-65
2023/09/18 03:35:58;;;;;;;7.10;4.47;;;;;;;18.62;100.00;101971.94;2080465;28;20193;-65
2023/09/18 03:36:58;;;;;;;5.97;4.67;;;;;;;18.61;100.00;101973.16;2080228;28;20199;-65
2023/09/18 03:37:59;;;;;;;6.97;4.87;;;;;;;18.57;100.00;101976.09;2080825;28;21194;-65
2023/09/18 03:38:59;;;;;;;6.50;4.27;;;;;;;18.56;100.00;101980.16;2080535;28;20716;-65
2023/09/18 03:40:01;;;;;;;7.90;4.77;;;;;;;18.57;100.00;101972.53;2079975;28;20189;-65
2023/09/18 03:41:02;;;;;;;6.63;4.33;;;;;;;18.57;100.00;101967.69;2081165;28;20205;-65
2023/09/18 03:42:03;;;;;;;7.10;4.40;;;;;;;18.56;100.00;101985.78;2080272;28;20929;-65
2023/09/18 03:43:03;;;;;;;12.33;4.37;;;;;;;18.57;100.00;101972.53;2080578;28;20223;-65
2023/09/18 03:44:04;;;;;;;8.37;4.53;;;;;;;18.53;100.00;101974.66;2080413;28;20475;-65
2023/09/18 03:45:09;;;;;;;8.23;4.20;;;;;;;18.54;100.00;101982.66;2080633;28;20196;-65
2023/09/18 03:46:09;;;;;;;7.63;4.13;;;;;;;18.55;100.00;101986.22;2080431;28;20207;-65
2023/09/18 03:47:10;;;;;;;6.27;4.40;;;;;;;18.54;100.00;101979.84;2080255;28;20438;-65
2023/09/18 03:48:10;;;;;;;6.20;4.93;;;;;;;18.50;100.00;101978.38;2080478;28;20246;-65
2023/09/18 03:49:11;;;;;;;5.87;4.43;;;;;;;18.49;100.00;101977.63;2080447;28;20231;-65
2023/09/18 03:50:12;;;;;;;8.10;5.00;;;;;;;18.57;100.00;101995.75;2080524;28;20242;-65
2023/09/18 03:51:15;;;;;;;6.23;4.07;;;;;;;18.55;100.00;101981.41;2080502;28;20769;-65
2023/09/18 03:52:16;;;;;;;8.23;4.70;;;;;;;18.57;100.00;101989.38;2079857;28;20236;-65
2023/09/18 03:53:17;;;;;;;8.83;4.80;;;;;;;18.57;100.00;101989.38;2080602;28;20598;-65
2023/09/18 03:54:17;;;;;;;6.23;4.50;;;;;;;18.55;100.00;101992.63;2080423;28;20204;-65
2023/09/18 03:55:18;;;;;;;6.93;4.07;;;;;;;18.54;100.00;101993.88;2080495;28;20451;-65
2023/09/18 03:56:18;;;;;;;9.17;5.47;;;;;;;18.36;100.00;101957.22;2080025;28;20177;-65
2023/09/18 03:57:18;;;;;;;7.30;4.80;;;;;;;18.54;100.00;101991.06;2080244;28;20181;-65
2023/09/18 03:58:19;;;;;;;6.73;5.13;;;;;;;18.54;100.00;102001.50;2080901;28;20264;-65
2023/09/18 03:59:20;;;;;;;6.43;4.83;;;;;;;18.54;100.00;101990.28;2080454;28;20197;-65
2023/09/18 04:00:22;;;;;;;7.50;4.97;;;;;;;18.55;100.00;101989.03;2080429;28;20195;-65
2023/09/18 04:01:22;;;;;;;12.53;5.50;;;;;;;18.54;100.00;101993.88;2080408;28;20284;-65
2023/09/18 04:02:25;;;;;;;9.80;4.77;;;;;;;18.53;100.00;101994.31;2080533;28;20442;-65
2023/09/18 04:03:25;;;;;;;6.13;4.80;;;;;;;18.52;100.00;101996.34;2080357;28;20205;-65
2023/09/18 04:04:25;;;;;;;6.43;4.87;;;;;;;18.52;100.00;101993.53;2080137;28;20488;-65
2023/09/18 04:05:26;;;;;;;6.57;4.67;;;;;;;18.54;100.00;101995.88;2080070;28;20271;-65
2023/09/18 04:06:36;;;;;;;7.87;5.07;;;;;;;18.49;100.00;101999.28;2080275;28;20256;-65
2023/09/18 04:07:37;;;;;;;7.37;4.93;;;;;;;18.48;100.00;102000.53;2080515;28;20415;-66
2023/09/18 04:08:37;;;;;;;7.83;4.80;;;;;;;18.46;100.00;102002.97;2080059;28;20502;-70
2023/09/18 04:09:39;;;;;;;1.90;1.20;;;;;;;19.00;100.00;102001.44;2078579;28;20196;-64
2023/09/18 04:10:40;;;;;;;1.73;1.00;;;;;;;19.55;100.00;102006.16;2078729;28;20200;-69
2023/09/18 04:11:40;;;;;;;2.30;1.37;;;;;;;20.19;100.00;102016.44;2080171;28;20470;-61
2023/09/18 04:12:40;;;;;;;3.17;1.83;;;;;;;20.40;100.00;101989.41;2079965;28;20224;-61
2023/09/18 04:13:41;;;;;;;2.77;2.10;;;;;;;20.86;100.00;102007.91;2079587;28;20200;-60
2023/09/18 04:14:41;;;;;;;2.37;1.93;;;;;;;21.23;100.00;101998.22;2080160;28;20176;-61
2023/09/18 04:15:42;;;;;;;5.07;2.30;;;;;;;21.46;100.00;102000.34;2079391;28;20180;-60
2023/09/18 04:16:43;;;;;;;4.00;2.70;;;;;;;21.72;100.00;101993.06;2079975;28;20208;-61
2023/09/18 04:17:44;;;;;;;7.27;2.60;;;;;;;21.94;100.00;102004.88;2079925;28;20185;-61
2023/09/18 04:18:45;;;;;;;6.50;2.57;;;;;;;22.02;100.00;101995.59;2079707;28;20280;-60
2023/09/18 04:19:45;;;;;;;4.63;2.80;;;;;;;22.31;100.00;101997.78;2078400;28;20282;-60
2023/09/18 04:20:45;;;;;;;6.63;3.10;;;;;;;22.47;100.00;102006.63;2079981;28;20203;-61
2023/09/18 04:21:46;;;;;;;4.73;2.80;;;;;;;22.52;100.00;101999.53;2079663;28;20209;-62
2023/09/18 04:22:50;;;;;;;8.17;3.37;;;;;;;22.64;100.00;102004.94;2079979;28;20196;-62
2023/09/18 04:23:55;;;;;;;4.40;3.67;;;;;;;22.64;100.00;101992.84;2079511;28;20315;-61
2023/09/18 04:24:55;;;;;;;4.83;3.20;;;;;;;22.64;100.00;101970.25;2078020;28;20184;-61
2023/09/18 04:25:58;;;;;;;4.00;3.07;;;;;;;22.59;100.00;101954.75;2079880;28;20223;-61
2023/09/18 04:26:58;;;;;;;4.73;3.57;;;;;;;22.93;100.00;101996.50;2081395;28;20200;-61
2023/09/18 04:27:58;;;;;;;5.30;4.20;;;;;;;23.02;100.00;101998.50;2079962;28;20189;-60
2023/09/18 04:29:00;;;;;;;8.13;4.17;;;;;;;22.91;100.00;101970.00;2076752;28;20622;-61
2023/09/18 04:30:00;;;;;;;7.13;3.57;;;;;;;23.09;100.00;101995.28;2078475;28;20197;-62
2023/09/18 04:31:01;;;;;;;6.37;4.13;;;;;;;23.06;100.00;101991.38;2084422;28;20196;-62
2023/09/18 04:32:04;;;;;;;7.73;4.20;;;;;;;23.09;100.00;101993.22;2081783;28;20556;-61
2023/09/18 04:33:04;;;;;;;4.83;3.73;;;;;;;23.12;100.00;101997.13;2067933;28;20931;-68
2023/09/18 04:34:04;;;;;;;5.67;3.63;;;;;;;23.16;100.00;101995.66;2078044;28;20596;-68
2023/09/18 04:35:06;;;;;;;4.30;3.40;;;;;;;23.19;100.00;101988.28;2082134;28;20296;-62
2023/09/18 04:36:07;;;;;;;6.63;4.50;;;;;;;23.21;100.00;101994.22;2080478;28;20203;-63
2023/09/18 04:37:08;;;;;;;5.27;4.00;;;;;;;22.87;100.00;101939.09;2080546;28;20200;-63
2023/09/18 04:38:10;;;;;;;6.43;3.90;;;;;;;23.23;100.00;102003.03;2078325;28;20228;-62
2023/09/18 04:39:11;;;;;;;5.50;3.80;;;;;;;23.29;100.00;101996.19;2084476;28;20710;-63
2023/09/18 04:40:12;;;;;;;5.40;3.60;;;;;;;23.37;100.00;101993.75;2077906;28;20645;-63
2023/09/18 04:41:14;;;;;;;5.33;3.67;;;;;;;23.41;100.00;101994.34;2081610;28;20626;-63
2023/09/18 04:42:15;;;;;;;7.23;5.17;;;;;;;23.37;100.00;101990.91;2079922;28;20176;-63